sim
Sign-in with your pilot id or email,
or register
Callsign
Passwort

Schedule Details

Flight Number: DLH2249 (2)
Departure: Lyon Saint Exupery Airport (LFLL) at 11:55
Arrival: Munich Airport (EDDM) at 13:15
Route: Lufthansa Passenger Schedule. Enter filed route here before submitting Pirep.

Weather Information
Getting current METAR information for LFLL 211830Z 16003KT CAVOK 22/15 Q1015 NOSIG
Getting current METAR information for EDDM 211820Z 10001KT CAVOK 15/13 Q1016 NOSIG

Schedule Frequency

Route Map